sensor_id;sensor_type;location;lat;lon;timestamp;temperature;humidity
5164;DHT22;2601;50.224;10.126;2022-11-12T00:01:21;6.10;99.90
5164;DHT22;2601;50.224;10.126;2022-11-12T00:03:47;6.10;99.90
5164;DHT22;2601;50.224;10.126;2022-11-12T00:06:13;6.00;99.90
5164;DHT22;2601;50.224;10.126;2022-11-12T00:08:39;6.00;99.90
5164;DHT22;2601;50.224;10.126;2022-11-12T00:11:04;6.00;99.90
5164;DHT22;2601;50.224;10.126;2022-11-12T00:13:30;6.20;99.90
5164;DHT22;2601;50.224;10.126;2022-11-12T00:15:56;6.30;99.90
5164;DHT22;2601;50.224;10.126;2022-11-12T00:18:25;6.20;99.90
5164;DHT22;2601;50.224;10.126;2022-11-12T00:20:51;6.20;99.90
5164;DHT22;2601;50.224;10.126;2022-11-12T00:23:16;6.10;99.90
5164;DHT22;2601;50.224;10.126;2022-11-12T00:25:42;6.10;99.90
5164;DHT22;2601;50.224;10.126;2022-11-12T00:28:09;6.10;99.90
5164;DHT22;2601;50.224;10.126;2022-11-12T00:30:39;6.10;99.90
5164;DHT22;2601;50.224;10.126;2022-11-12T00:33:05;6.00;99.90
5164;DHT22;2601;50.224;10.126;2022-11-12T00:35:32;6.00;99.90
5164;DHT22;2601;50.224;10.126;2022-11-12T00:37:59;5.90;99.90
5164;DHT22;2601;50.224;10.126;2022-11-12T00:40:25;6.00;99.90
5164;DHT22;2601;50.224;10.126;2022-11-12T00:42:54;6.00;99.90
5164;DHT22;2601;50.224;10.126;2022-11-12T00:45:20;6.00;99.90
5164;DHT22;2601;50.224;10.126;2022-11-12T00:47:46;6.00;99.90
5164;DHT22;2601;50.224;10.126;2022-11-12T00:50:12;6.00;99.90
5164;DHT22;2601;50.224;10.126;2022-11-12T00:52:37;5.90;99.90
5164;DHT22;2601;50.224;10.126;2022-11-12T00:55:03;5.90;99.90
5164;DHT22;2601;50.224;10.126;2022-11-12T00:57:29;5.90;99.90
5164;DHT22;2601;50.224;10.126;2022-11-12T00:59:55;5.80;99.90
5164;DHT22;2601;50.224;10.126;2022-11-12T01:02:21;5.90;99.90
5164;DHT22;2601;50.224;10.126;2022-11-12T01:04:47;5.80;99.90
5164;DHT22;2601;50.224;10.126;2022-11-12T01:07:13;5.80;99.90
5164;DHT22;2601;50.224;10.126;2022-11-12T01:09:40;5.80;99.90
5164;DHT22;2601;50.224;10.126;2022-11-12T01:12:06;5.80;99.90
5164;DHT22;2601;50.224;10.126;2022-11-12T01:14:32;5.80;99.90
5164;DHT22;2601;50.224;10.126;2022-11-12T01:16:58;5.80;99.90
5164;DHT22;2601;50.224;10.126;2022-11-12T01:19:24;5.80;99.90
5164;DHT22;2601;50.224;10.126;2022-11-12T01:21:50;5.80;99.90
5164;DHT22;2601;50.224;10.126;2022-11-12T01:24:15;5.80;99.90
5164;DHT22;2601;50.224;10.126;2022-11-12T01:26:41;5.80;99.90
5164;DHT22;2601;50.224;10.126;2022-11-12T01:29:07;5.80;99.90
5164;DHT22;2601;50.224;10.126;2022-11-12T01:31:35;5.80;99.90
5164;DHT22;2601;50.224;10.126;2022-11-12T01:34:04;5.80;99.90
5164;DHT22;2601;50.224;10.126;2022-11-12T01:36:34;5.80;99.90
5164;DHT22;2601;50.224;10.126;2022-11-12T01:39:00;5.80;99.90
5164;DHT22;2601;50.224;10.126;2022-11-12T01:41:29;5.70;99.90
5164;DHT22;2601;50.224;10.126;2022-11-12T01:44:12;5.70;99.90
5164;DHT22;2601;50.224;10.126;2022-11-12T01:46:59;5.70;99.90
5164;DHT22;2601;50.224;10.126;2022-11-12T01:54:48;5.80;99.90
5164;DHT22;2601;50.224;10.126;2022-11-12T01:57:20;5.80;99.90
5164;DHT22;2601;50.224;10.126;2022-11-12T01:59:49;5.70;99.90
5164;DHT22;2601;50.224;10.126;2022-11-12T02:02:17;5.70;99.90
5164;DHT22;2601;50.224;10.126;2022-11-12T02:04:43;5.70;99.90
5164;DHT22;2601;50.224;10.126;2022-11-12T02:07:10;5.70;99.90
5164;DHT22;2601;50.224;10.126;2022-11-12T02:09:36;5.70;99.90
5164;DHT22;2601;50.224;10.126;2022-11-12T02:12:02;5.80;99.90
5164;DHT22;2601;50.224;10.126;2022-11-12T02:14:28;5.70;99.90
5164;DHT22;2601;50.224;10.126;2022-11-12T02:16:54;5.80;99.90
5164;DHT22;2601;50.224;10.126;2022-11-12T02:19:20;5.90;99.90
5164;DHT22;2601;50.224;10.126;2022-11-12T02:21:46;5.90;99.90
5164;DHT22;2601;50.224;10.126;2022-11-12T02:26:50;5.80;99.90
5164;DHT22;2601;50.224;10.126;2022-11-12T02:29:17;5.80;99.90
5164;DHT22;2601;50.224;10.126;2022-11-12T02:31:44;5.80;99.90
5164;DHT22;2601;50.224;10.126;2022-11-12T02:34:09;5.70;99.90
5164;DHT22;2601;50.224;10.126;2022-11-12T02:36:35;5.90;99.90
5164;DHT22;2601;50.224;10.126;2022-11-12T02:39:01;5.90;99.90
5164;DHT22;2601;50.224;10.126;2022-11-12T02:41:27;5.90;99.90
5164;DHT22;2601;50.224;10.126;2022-11-12T02:43:52;5.80;99.90
5164;DHT22;2601;50.224;10.126;2022-11-12T02:46:18;5.80;99.90
5164;DHT22;2601;50.224;10.126;2022-11-12T02:48:44;5.80;99.90
5164;DHT22;2601;50.224;10.126;2022-11-12T02:51:10;5.80;99.90
5164;DHT22;2601;50.224;10.126;2022-11-12T02:53:35;5.70;99.90
5164;DHT22;2601;50.224;10.126;2022-11-12T02:56:01;5.70;99.90
5164;DHT22;2601;50.224;10.126;2022-11-12T02:58:28;5.70;99.90
5164;DHT22;2601;50.224;10.126;2022-11-12T03:00:54;5.70;99.90
5164;DHT22;2601;50.224;10.126;2022-11-12T03:03:20;5.70;99.90
5164;DHT22;2601;50.224;10.126;2022-11-12T03:05:53;5.70;99.90
5164;DHT22;2601;50.224;10.126;2022-11-12T03:08:19;5.70;99.90
5164;DHT22;2601;50.224;10.126;2022-11-12T03:10:44;5.80;99.90
5164;DHT22;2601;50.224;10.126;2022-11-12T03:13:10;5.80;99.90
5164;DHT22;2601;50.224;10.126;2022-11-12T03:15:36;5.70;99.90
5164;DHT22;2601;50.224;10.126;2022-11-12T03:18:02;5.80;99.90
5164;DHT22;2601;50.224;10.126;2022-11-12T03:20:27;5.70;99.90
5164;DHT22;2601;50.224;10.126;2022-11-12T03:23:09;5.70;99.90
5164;DHT22;2601;50.224;10.126;2022-11-12T03:25:35;5.70;99.90
5164;DHT22;2601;50.224;10.126;2022-11-12T03:28:04;5.70;99.90
5164;DHT22;2601;50.224;10.126;2022-11-12T03:30:32;5.70;99.90
5164;DHT22;2601;50.224;10.126;2022-11-12T03:32:59;5.60;99.90
5164;DHT22;2601;50.224;10.126;2022-11-12T03:35:24;5.60;99.90
5164;DHT22;2601;50.224;10.126;2022-11-12T03:37:51;5.70;99.90
5164;DHT22;2601;50.224;10.126;2022-11-12T03:40:17;5.60;99.90
5164;DHT22;2601;50.224;10.126;2022-11-12T03:42:47;5.60;99.90
5164;DHT22;2601;50.224;10.126;2022-11-12T03:45:14;5.50;99.90
5164;DHT22;2601;50.224;10.126;2022-11-12T03:47:45;5.50;99.90
5164;DHT22;2601;50.224;10.126;2022-11-12T03:50:12;5.60;99.90
5164;DHT22;2601;50.224;10.126;2022-11-12T03:52:38;5.60;99.90
5164;DHT22;2601;50.224;10.126;2022-11-12T03:55:08;5.60;99.90
5164;DHT22;2601;50.224;10.126;2022-11-12T03:57:33;5.60;99.90
5164;DHT22;2601;50.224;10.126;2022-11-12T03:59:59;5.60;99.90
5164;DHT22;2601;50.224;10.126;2022-11-12T04:02:25;5.60;99.90
5164;DHT22;2601;50.224;10.126;2022-11-12T04:04:52;5.60;99.90
5164;DHT22;2601;50.224;10.126;2022-11-12T04:07:37;5.60;99.90
5164;DHT22;2601;50.224;10.126;2022-11-12T04:10:21;5.60;99.90
5164;DHT22;2601;50.224;10.126;2022-11-12T04:12:47;5.60;99.90
5164;DHT22;2601;50.224;10.126;2022-11-12T04:15:31;5.60;99.90
5164;DHT22;2601;50.224;10.126;2022-11-12T04:17:56;5.60;99.90
5164;DHT22;2601;50.224;10.126;2022-11-12T04:20:41;5.60;99.90
5164;DHT22;2601;50.224;10.126;2022-11-12T04:23:25;5.60;99.90
5164;DHT22;2601;50.224;10.126;2022-11-12T04:25:51;5.60;99.90
5164;DHT22;2601;50.224;10.126;2022-11-12T04:28:35;5.60;99.90
5164;DHT22;2601;50.224;10.126;2022-11-12T04:31:01;5.50;99.90
5164;DHT22;2601;50.224;10.126;2022-11-12T04:33:27;5.40;99.90
5164;DHT22;2601;50.224;10.126;2022-11-12T04:35:52;5.40;99.90
5164;DHT22;2601;50.224;10.126;2022-11-12T04:38:18;5.40;99.90
5164;DHT22;2601;50.224;10.126;2022-11-12T04:40:44;5.30;99.90
5164;DHT22;2601;50.224;10.126;2022-11-12T04:43:28;5.40;99.90
5164;DHT22;2601;50.224;10.126;2022-11-12T04:46:12;5.40;99.90
5164;DHT22;2601;50.224;10.126;2022-11-12T04:48:38;5.40;99.90
5164;DHT22;2601;50.224;10.126;2022-11-12T04:51:04;5.40;99.90
5164;DHT22;2601;50.224;10.126;2022-11-12T04:53:49;5.40;99.90
5164;DHT22;2601;50.224;10.126;2022-11-12T04:56:15;5.40;99.90
5164;DHT22;2601;50.224;10.126;2022-11-12T04:58:40;5.40;99.90
5164;DHT22;2601;50.224;10.126;2022-11-12T05:01:06;5.40;99.90
5164;DHT22;2601;50.224;10.126;2022-11-12T05:03:32;5.50;99.90
5164;DHT22;2601;50.224;10.126;2022-11-12T05:06:01;5.40;99.90
5164;DHT22;2601;50.224;10.126;2022-11-12T05:08:27;5.40;99.90
5164;DHT22;2601;50.224;10.126;2022-11-12T05:10:53;5.50;99.90
5164;DHT22;2601;50.224;10.126;2022-11-12T05:13:19;5.40;99.90
5164;DHT22;2601;50.224;10.126;2022-11-12T05:15:44;5.40;99.90
5164;DHT22;2601;50.224;10.126;2022-11-12T05:18:10;5.40;99.90
5164;DHT22;2601;50.224;10.126;2022-11-12T05:20:36;5.40;99.90
5164;DHT22;2601;50.224;10.126;2022-11-12T05:23:01;5.40;99.90
5164;DHT22;2601;50.224;10.126;2022-11-12T05:25:27;5.30;99.90
5164;DHT22;2601;50.224;10.126;2022-11-12T05:27:53;5.30;99.90
5164;DHT22;2601;50.224;10.126;2022-11-12T05:30:18;5.40;99.90
5164;DHT22;2601;50.224;10.126;2022-11-12T05:32:44;5.40;99.90
5164;DHT22;2601;50.224;10.126;2022-11-12T05:35:10;5.30;99.90
5164;DHT22;2601;50.224;10.126;2022-11-12T05:37:36;5.30;99.90
5164;DHT22;2601;50.224;10.126;2022-11-12T05:40:01;5.30;99.90
5164;DHT22;2601;50.224;10.126;2022-11-12T05:42:27;5.30;99.90
5164;DHT22;2601;50.224;10.126;2022-11-12T05:44:53;5.40;99.90
5164;DHT22;2601;50.224;10.126;2022-11-12T05:47:18;5.50;99.90
5164;DHT22;2601;50.224;10.126;2022-11-12T05:49:44;5.50;99.90
5164;DHT22;2601;50.224;10.126;2022-11-12T05:52:10;5.40;99.90
5164;DHT22;2601;50.224;10.126;2022-11-12T05:54:35;5.50;99.90
5164;DHT22;2601;50.224;10.126;2022-11-12T05:57:01;5.50;99.90
5164;DHT22;2601;50.224;10.126;2022-11-12T05:59:27;5.50;99.90
5164;DHT22;2601;50.224;10.126;2022-11-12T06:01:53;5.60;99.90
5164;DHT22;2601;50.224;10.126;2022-11-12T06:04:19;5.50;99.90
5164;DHT22;2601;50.224;10.126;2022-11-12T06:06:45;5.40;99.90
5164;DHT22;2601;50.224;10.126;2022-11-12T06:09:11;5.20;99.90
5164;DHT22;2601;50.224;10.126;2022-11-12T06:11:37;5.20;99.90
5164;DHT22;2601;50.224;10.126;2022-11-12T06:14:04;5.30;99.90
5164;DHT22;2601;50.224;10.126;2022-11-12T06:16:30;5.20;99.90
5164;DHT22;2601;50.224;10.126;2022-11-12T06:18:56;5.10;99.90
5164;DHT22;2601;50.224;10.126;2022-11-12T06:21:22;5.30;99.90
5164;DHT22;2601;50.224;10.126;2022-11-12T06:23:53;5.30;99.90
5164;DHT22;2601;50.224;10.126;2022-11-12T06:26:20;5.30;99.90
5164;DHT22;2601;50.224;10.126;2022-11-12T06:28:47;5.30;99.90
5164;DHT22;2601;50.224;10.126;2022-11-12T06:31:14;5.30;99.90
5164;DHT22;2601;50.224;10.126;2022-11-12T06:33:40;5.30;99.90
5164;DHT22;2601;50.224;10.126;2022-11-12T06:36:09;5.30;99.90
5164;DHT22;2601;50.224;10.126;2022-11-12T06:38:36;5.40;99.90
5164;DHT22;2601;50.224;10.126;2022-11-12T06:41:03;5.30;99.90
5164;DHT22;2601;50.224;10.126;2022-11-12T06:43:30;5.20;99.90
5164;DHT22;2601;50.224;10.126;2022-11-12T06:46:02;5.10;99.90
5164;DHT22;2601;50.224;10.126;2022-11-12T06:48:29;5.30;99.90
5164;DHT22;2601;50.224;10.126;2022-11-12T06:50:56;5.30;99.90
5164;DHT22;2601;50.224;10.126;2022-11-12T06:53:23;5.20;99.90
5164;DHT22;2601;50.224;10.126;2022-11-12T06:55:49;5.20;99.90
5164;DHT22;2601;50.224;10.126;2022-11-12T06:58:15;5.30;99.90
5164;DHT22;2601;50.224;10.126;2022-11-12T07:00:40;5.40;99.90
5164;DHT22;2601;50.224;10.126;2022-11-12T07:03:07;5.40;99.90
5164;DHT22;2601;50.224;10.126;2022-11-12T07:05:37;5.40;99.90
5164;DHT22;2601;50.224;10.126;2022-11-12T07:08:04;5.40;99.90
5164;DHT22;2601;50.224;10.126;2022-11-12T07:10:31;5.50;99.90
5164;DHT22;2601;50.224;10.126;2022-11-12T07:12:56;5.50;99.90
5164;DHT22;2601;50.224;10.126;2022-11-12T07:15:22;5.60;99.90
5164;DHT22;2601;50.224;10.126;2022-11-12T07:17:48;5.60;99.90
5164;DHT22;2601;50.224;10.126;2022-11-12T07:20:14;5.60;99.90
5164;DHT22;2601;50.224;10.126;2022-11-12T07:22:39;5.60;99.90
5164;DHT22;2601;50.224;10.126;2022-11-12T07:25:05;5.70;99.90
5164;DHT22;2601;50.224;10.126;2022-11-12T07:27:31;5.60;99.90
5164;DHT22;2601;50.224;10.126;2022-11-12T07:29:57;5.60;99.90
5164;DHT22;2601;50.224;10.126;2022-11-12T07:32:22;5.60;99.90
5164;DHT22;2601;50.224;10.126;2022-11-12T07:34:48;5.70;99.90
5164;DHT22;2601;50.224;10.126;2022-11-12T07:37:15;5.80;99.90
5164;DHT22;2601;50.224;10.126;2022-11-12T07:39:41;5.80;99.90
5164;DHT22;2601;50.224;10.126;2022-11-12T07:42:07;5.80;99.90
5164;DHT22;2601;50.224;10.126;2022-11-12T07:44:33;5.90;99.90
5164;DHT22;2601;50.224;10.126;2022-11-12T07:46:59;5.90;99.90
5164;DHT22;2601;50.224;10.126;2022-11-12T07:49:24;5.90;99.90
5164;DHT22;2601;50.224;10.126;2022-11-12T07:51:50;6.00;99.90
5164;DHT22;2601;50.224;10.126;2022-11-12T07:54:16;6.00;99.90
5164;DHT22;2601;50.224;10.126;2022-11-12T07:56:41;6.20;99.90
5164;DHT22;2601;50.224;10.126;2022-11-12T07:59:07;6.20;99.90
5164;DHT22;2601;50.224;10.126;2022-11-12T08:01:38;6.30;99.90
5164;DHT22;2601;50.224;10.126;2022-11-12T08:04:06;6.30;99.90
5164;DHT22;2601;50.224;10.126;2022-11-12T08:06:32;6.20;99.90
5164;DHT22;2601;50.224;10.126;2022-11-12T08:09:00;6.30;99.90
5164;DHT22;2601;50.224;10.126;2022-11-12T08:11:27;6.40;99.90
5164;DHT22;2601;50.224;10.126;2022-11-12T08:13:53;6.40;99.90
5164;DHT22;2601;50.224;10.126;2022-11-12T08:16:19;6.50;99.90
5164;DHT22;2601;50.224;10.126;2022-11-12T08:18:45;6.50;99.90
5164;DHT22;2601;50.224;10.126;2022-11-12T08:21:12;6.50;99.90
5164;DHT22;2601;50.224;10.126;2022-11-12T08:23:39;6.60;99.90
5164;DHT22;2601;50.224;10.126;2022-11-12T08:26:06;6.70;99.90
5164;DHT22;2601;50.224;10.126;2022-11-12T08:28:35;6.70;99.90
5164;DHT22;2601;50.224;10.126;2022-11-12T08:31:06;6.90;99.90
5164;DHT22;2601;50.224;10.126;2022-11-12T08:33:33;7.10;99.90
5164;DHT22;2601;50.224;10.126;2022-11-12T08:36:05;7.30;99.90
5164;DHT22;2601;50.224;10.126;2022-11-12T08:38:31;7.30;99.90
5164;DHT22;2601;50.224;10.126;2022-11-12T08:41:05;7.40;99.90
5164;DHT22;2601;50.224;10.126;2022-11-12T08:43:31;7.30;99.90
5164;DHT22;2601;50.224;10.126;2022-11-12T08:45:58;7.40;99.90
5164;DHT22;2601;50.224;10.126;2022-11-12T08:48:25;7.50;99.90
5164;DHT22;2601;50.224;10.126;2022-11-12T08:50:51;7.70;99.90
5164;DHT22;2601;50.224;10.126;2022-11-12T08:53:16;7.80;99.90
5164;DHT22;2601;50.224;10.126;2022-11-12T08:55:42;7.90;99.90
5164;DHT22;2601;50.224;10.126;2022-11-12T08:58:08;7.80;99.90
5164;DHT22;2601;50.224;10.126;2022-11-12T09:00:41;7.70;99.90
5164;DHT22;2601;50.224;10.126;2022-11-12T09:03:15;7.80;99.90
5164;DHT22;2601;50.224;10.126;2022-11-12T09:05:41;7.80;99.90
5164;DHT22;2601;50.224;10.126;2022-11-12T09:08:13;7.90;99.90
5164;DHT22;2601;50.224;10.126;2022-11-12T09:10:39;8.00;99.90
5164;DHT22;2601;50.224;10.126;2022-11-12T09:13:05;8.00;99.90
5164;DHT22;2601;50.224;10.126;2022-11-12T09:15:31;8.00;99.90
5164;DHT22;2601;50.224;10.126;2022-11-12T09:17:59;8.00;99.90
5164;DHT22;2601;50.224;10.126;2022-11-12T09:20:26;7.90;99.90
5164;DHT22;2601;50.224;10.126;2022-11-12T09:22:56;8.00;99.90
5164;DHT22;2601;50.224;10.126;2022-11-12T09:25:22;8.20;99.90
5164;DHT22;2601;50.224;10.126;2022-11-12T09:27:48;8.20;99.90
5164;DHT22;2601;50.224;10.126;2022-11-12T09:30:14;8.30;99.90
5164;DHT22;2601;50.224;10.126;2022-11-12T09:32:40;8.40;99.90
5164;DHT22;2601;50.224;10.126;2022-11-12T09:35:06;8.40;99.90
5164;DHT22;2601;50.224;10.126;2022-11-12T09:37:32;8.40;99.90
5164;DHT22;2601;50.224;10.126;2022-11-12T09:39:57;8.40;99.90
5164;DHT22;2601;50.224;10.126;2022-11-12T09:42:23;8.40;99.90
5164;DHT22;2601;50.224;10.126;2022-11-12T09:45:06;8.50;99.90
5164;DHT22;2601;50.224;10.126;2022-11-12T09:47:40;8.60;99.90
5164;DHT22;2601;50.224;10.126;2022-11-12T09:50:43;8.80;99.90
5164;DHT22;2601;50.224;10.126;2022-11-12T09:53:25;9.00;99.90
5164;DHT22;2601;50.224;10.126;2022-11-12T09:55:52;9.00;99.90
5164;DHT22;2601;50.224;10.126;2022-11-12T09:58:18;9.20;99.90
5164;DHT22;2601;50.224;10.126;2022-11-12T10:01:08;9.30;99.90
5164;DHT22;2601;50.224;10.126;2022-11-12T10:06:28;9.40;99.90
5164;DHT22;2601;50.224;10.126;2022-11-12T10:14:13;9.30;99.90
5164;DHT22;2601;50.224;10.126;2022-11-12T10:19:51;9.40;99.90
5164;DHT22;2601;50.224;10.126;2022-11-12T10:25:16;9.70;99.90
5164;DHT22;2601;50.224;10.126;2022-11-12T10:27:43;9.90;99.90
5164;DHT22;2601;50.224;10.126;2022-11-12T10:30:16;9.90;99.90
5164;DHT22;2601;50.224;10.126;2022-11-12T10:32:43;10.10;99.90
5164;DHT22;2601;50.224;10.126;2022-11-12T10:35:13;10.20;99.90
5164;DHT22;2601;50.224;10.126;2022-11-12T10:40:29;10.30;99.90
5164;DHT22;2601;50.224;10.126;2022-11-12T10:42:59;10.30;99.90
5164;DHT22;2601;50.224;10.126;2022-11-12T10:45:25;10.20;99.90
5164;DHT22;2601;50.224;10.126;2022-11-12T10:47:51;10.40;99.90
5164;DHT22;2601;50.224;10.126;2022-11-12T10:53:05;10.30;99.90
5164;DHT22;2601;50.224;10.126;2022-11-12T10:55:33;10.30;99.90
5164;DHT22;2601;50.224;10.126;2022-11-12T11:00:37;10.50;99.90
5164;DHT22;2601;50.224;10.126;2022-11-12T11:03:22;10.60;99.90
5164;DHT22;2601;50.224;10.126;2022-11-12T11:08:44;10.90;99.90
5164;DHT22;2601;50.224;10.126;2022-11-12T11:11:22;11.00;99.90
5164;DHT22;2601;50.224;10.126;2022-11-12T11:13:50;11.20;99.90
5164;DHT22;2601;50.224;10.126;2022-11-12T11:18:53;11.30;99.90
5164;DHT22;2601;50.224;10.126;2022-11-12T11:24:55;11.60;99.90
5164;DHT22;2601;50.224;10.126;2022-11-12T11:27:41;11.90;99.90
5164;DHT22;2601;50.224;10.126;2022-11-12T11:30:20;12.20;99.90
5164;DHT22;2601;50.224;10.126;2022-11-12T11:36:04;13.30;99.90
5164;DHT22;2601;50.224;10.126;2022-11-12T11:47:05;14.30;99.90
5164;DHT22;2601;50.224;10.126;2022-11-12T12:05:59;13.20;99.90
5164;DHT22;2601;50.224;10.126;2022-11-12T12:09:06;13.00;99.90
5164;DHT22;2601;50.224;10.126;2022-11-12T12:20:25;12.20;99.90
5164;DHT22;2601;50.224;10.126;2022-11-12T12:25:43;12.10;99.90
5164;DHT22;2601;50.224;10.126;2022-11-12T12:28:15;12.20;99.90
5164;DHT22;2601;50.224;10.126;2022-11-12T12:30:46;12.10;99.90
5164;DHT22;2601;50.224;10.126;2022-11-12T12:33:34;11.90;99.90
5164;DHT22;2601;50.224;10.126;2022-11-12T12:36:05;12.00;99.90
5164;DHT22;2601;50.224;10.126;2022-11-12T12:44:11;12.50;99.90
5164;DHT22;2601;50.224;10.126;2022-11-12T12:46:56;12.20;99.90
5164;DHT22;2601;50.224;10.126;2022-11-12T12:49:31;12.30;99.90
5164;DHT22;2601;50.224;10.126;2022-11-12T12:51:58;12.40;99.90
5164;DHT22;2601;50.224;10.126;2022-11-12T12:57:00;12.80;99.90
5164;DHT22;2601;50.224;10.126;2022-11-12T12:59:27;13.00;99.90
5164;DHT22;2601;50.224;10.126;2022-11-12T13:02:00;12.90;99.90
5164;DHT22;2601;50.224;10.126;2022-11-12T13:04:55;12.80;99.90
5164;DHT22;2601;50.224;10.126;2022-11-12T13:07:41;12.70;99.90
5164;DHT22;2601;50.224;10.126;2022-11-12T13:13:23;13.00;99.90
5164;DHT22;2601;50.224;10.126;2022-11-12T13:15:54;13.30;99.90
5164;DHT22;2601;50.224;10.126;2022-11-12T13:18:54;13.00;99.90
5164;DHT22;2601;50.224;10.126;2022-11-12T13:21:21;12.90;99.90
5164;DHT22;2601;50.224;10.126;2022-11-12T13:23:48;12.80;99.90
5164;DHT22;2601;50.224;10.126;2022-11-12T13:32:30;12.60;99.90
5164;DHT22;2601;50.224;10.126;2022-11-12T13:40:34;12.90;99.90
5164;DHT22;2601;50.224;10.126;2022-11-12T13:45:37;12.90;99.90
5164;DHT22;2601;50.224;10.126;2022-11-12T13:48:06;13.50;99.90
5164;DHT22;2601;50.224;10.126;2022-11-12T13:50:33;13.40;99.90
5164;DHT22;2601;50.224;10.126;2022-11-12T13:52:59;13.20;99.90
5164;DHT22;2601;50.224;10.126;2022-11-12T13:55:25;12.90;99.90
5164;DHT22;2601;50.224;10.126;2022-11-12T13:57:52;13.30;99.90
5164;DHT22;2601;50.224;10.126;2022-11-12T14:02:59;13.20;99.90
5164;DHT22;2601;50.224;10.126;2022-11-12T14:05:30;13.00;99.90
5164;DHT22;2601;50.224;10.126;2022-11-12T14:13:39;12.80;99.90
5164;DHT22;2601;50.224;10.126;2022-11-12T14:22:00;12.40;99.90
5164;DHT22;2601;50.224;10.126;2022-11-12T14:24:26;12.30;99.90
5164;DHT22;2601;50.224;10.126;2022-11-12T14:26:52;12.20;99.90
5164;DHT22;2601;50.224;10.126;2022-11-12T14:29:18;12.10;99.90
5164;DHT22;2601;50.224;10.126;2022-11-12T14:31:44;11.90;99.90
5164;DHT22;2601;50.224;10.126;2022-11-12T14:34:32;11.60;99.90
5164;DHT22;2601;50.224;10.126;2022-11-12T14:36:59;11.50;99.90
5164;DHT22;2601;50.224;10.126;2022-11-12T14:39:26;11.40;99.90
5164;DHT22;2601;50.224;10.126;2022-11-12T14:41:54;11.10;99.90
5164;DHT22;2601;50.224;10.126;2022-11-12T14:44:32;11.10;99.90
5164;DHT22;2601;50.224;10.126;2022-11-12T14:46:58;10.70;99.90
5164;DHT22;2601;50.224;10.126;2022-11-12T14:49:38;10.50;99.90
5164;DHT22;2601;50.224;10.126;2022-11-12T14:54:53;10.30;99.90
5164;DHT22;2601;50.224;10.126;2022-11-12T14:57:26;10.00;99.90
5164;DHT22;2601;50.224;10.126;2022-11-12T14:59:52;9.80;99.90
5164;DHT22;2601;50.224;10.126;2022-11-12T15:02:24;9.60;99.90
5164;DHT22;2601;50.224;10.126;2022-11-12T15:05:16;9.40;99.90
5164;DHT22;2601;50.224;10.126;2022-11-12T15:08:01;9.20;99.90
5164;DHT22;2601;50.224;10.126;2022-11-12T15:10:38;9.00;99.90
5164;DHT22;2601;50.224;10.126;2022-11-12T15:13:19;8.80;99.90
5164;DHT22;2601;50.224;10.126;2022-11-12T15:15:49;8.70;99.90
5164;DHT22;2601;50.224;10.126;2022-11-12T15:18:18;8.50;99.90
5164;DHT22;2601;50.224;10.126;2022-11-12T15:20:45;8.40;99.90
5164;DHT22;2601;50.224;10.126;2022-11-12T15:23:16;8.30;99.90
5164;DHT22;2601;50.224;10.126;2022-11-12T15:25:43;8.30;99.90
5164;DHT22;2601;50.224;10.126;2022-11-12T15:28:20;8.20;99.90
5164;DHT22;2601;50.224;10.126;2022-11-12T15:33:32;7.90;99.90
5164;DHT22;2601;50.224;10.126;2022-11-12T15:35:59;7.90;99.90
5164;DHT22;2601;50.224;10.126;2022-11-12T15:38:33;7.80;99.90
5164;DHT22;2601;50.224;10.126;2022-11-12T15:41:03;7.80;99.90
5164;DHT22;2601;50.224;10.126;2022-11-12T15:43:35;7.60;99.90
5164;DHT22;2601;50.224;10.126;2022-11-12T15:46:01;7.50;99.90
5164;DHT22;2601;50.224;10.126;2022-11-12T15:48:27;7.50;99.90
5164;DHT22;2601;50.224;10.126;2022-11-12T15:50:53;7.40;99.90
5164;DHT22;2601;50.224;10.126;2022-11-12T15:53:19;7.40;99.90
5164;DHT22;2601;50.224;10.126;2022-11-12T15:55:46;7.30;99.90
5164;DHT22;2601;50.224;10.126;2022-11-12T15:58:28;7.20;99.90
5164;DHT22;2601;50.224;10.126;2022-11-12T16:00:55;7.20;99.90
5164;DHT22;2601;50.224;10.126;2022-11-12T16:03:21;7.00;99.90
5164;DHT22;2601;50.224;10.126;2022-11-12T16:05:47;7.00;99.90
5164;DHT22;2601;50.224;10.126;2022-11-12T16:08:13;6.90;99.90
5164;DHT22;2601;50.224;10.126;2022-11-12T16:10:41;6.90;99.90
5164;DHT22;2601;50.224;10.126;2022-11-12T16:13:13;6.80;99.90
5164;DHT22;2601;50.224;10.126;2022-11-12T16:15:39;6.80;99.90
5164;DHT22;2601;50.224;10.126;2022-11-12T16:18:07;6.80;99.90
5164;DHT22;2601;50.224;10.126;2022-11-12T16:20:34;6.90;99.90
5164;DHT22;2601;50.224;10.126;2022-11-12T16:23:00;6.90;99.90
5164;DHT22;2601;50.224;10.126;2022-11-12T16:25:35;6.90;99.90
5164;DHT22;2601;50.224;10.126;2022-11-12T16:28:01;7.00;99.90
5164;DHT22;2601;50.224;10.126;2022-11-12T16:30:29;6.90;99.90
5164;DHT22;2601;50.224;10.126;2022-11-12T16:32:56;6.70;99.90
5164;DHT22;2601;50.224;10.126;2022-11-12T16:35:23;6.60;99.90
5164;DHT22;2601;50.224;10.126;2022-11-12T16:37:49;6.50;99.90
5164;DHT22;2601;50.224;10.126;2022-11-12T16:40:23;6.50;99.90
5164;DHT22;2601;50.224;10.126;2022-11-12T16:42:49;6.40;99.90
5164;DHT22;2601;50.224;10.126;2022-11-12T16:45:20;6.40;99.90
5164;DHT22;2601;50.224;10.126;2022-11-12T16:47:54;6.40;99.90
5164;DHT22;2601;50.224;10.126;2022-11-12T16:50:22;6.40;99.90
5164;DHT22;2601;50.224;10.126;2022-11-12T16:52:49;6.30;99.90
5164;DHT22;2601;50.224;10.126;2022-11-12T16:55:15;6.20;99.90
5164;DHT22;2601;50.224;10.126;2022-11-12T16:57:41;6.10;99.90
5164;DHT22;2601;50.224;10.126;2022-11-12T17:00:16;6.10;99.90
5164;DHT22;2601;50.224;10.126;2022-11-12T17:02:42;6.00;99.90
5164;DHT22;2601;50.224;10.126;2022-11-12T17:05:14;5.90;99.90
5164;DHT22;2601;50.224;10.126;2022-11-12T17:07:40;5.90;99.90
5164;DHT22;2601;50.224;10.126;2022-11-12T17:10:06;5.80;99.90
5164;DHT22;2601;50.224;10.126;2022-11-12T17:12:32;5.90;99.90
5164;DHT22;2601;50.224;10.126;2022-11-12T17:14:58;5.90;99.90
5164;DHT22;2601;50.224;10.126;2022-11-12T17:17:23;5.90;99.90
5164;DHT22;2601;50.224;10.126;2022-11-12T17:19:49;5.90;99.90
5164;DHT22;2601;50.224;10.126;2022-11-12T17:22:15;5.80;99.90
5164;DHT22;2601;50.224;10.126;2022-11-12T17:24:41;5.80;99.90
5164;DHT22;2601;50.224;10.126;2022-11-12T17:27:06;5.70;99.90
5164;DHT22;2601;50.224;10.126;2022-11-12T17:29:32;5.70;99.90
5164;DHT22;2601;50.224;10.126;2022-11-12T17:31:57;5.70;99.90
5164;DHT22;2601;50.224;10.126;2022-11-12T17:34:23;5.80;99.90
5164;DHT22;2601;50.224;10.126;2022-11-12T17:36:49;5.80;99.90
5164;DHT22;2601;50.224;10.126;2022-11-12T17:39:15;6.00;99.90
5164;DHT22;2601;50.224;10.126;2022-11-12T17:41:40;5.90;99.90
5164;DHT22;2601;50.224;10.126;2022-11-12T17:44:06;5.80;99.90
5164;DHT22;2601;50.224;10.126;2022-11-12T17:46:32;5.70;99.90
5164;DHT22;2601;50.224;10.126;2022-11-12T17:49:00;5.70;99.90
5164;DHT22;2601;50.224;10.126;2022-11-12T17:51:27;5.60;99.90
5164;DHT22;2601;50.224;10.126;2022-11-12T17:53:53;5.60;99.90
5164;DHT22;2601;50.224;10.126;2022-11-12T17:56:21;5.60;99.90
5164;DHT22;2601;50.224;10.126;2022-11-12T17:58:50;5.50;99.90
5164;DHT22;2601;50.224;10.126;2022-11-12T18:01:19;5.50;99.90
5164;DHT22;2601;50.224;10.126;2022-11-12T18:03:47;5.50;99.90
5164;DHT22;2601;50.224;10.126;2022-11-12T18:08:50;5.40;99.90
5164;DHT22;2601;50.224;10.126;2022-11-12T18:11:16;5.40;99.90
5164;DHT22;2601;50.224;10.126;2022-11-12T18:13:42;5.50;99.90
5164;DHT22;2601;50.224;10.126;2022-11-12T18:16:22;5.30;99.90